createdAt,value
2018-07-26T00:01:42.023Z,3.70
2018-07-26T00:04:10.830Z,3.50
2018-07-26T00:09:12.664Z,3.63
2018-07-26T00:11:41.489Z,4.43
2018-07-26T00:14:10.035Z,3.30
2018-07-26T00:16:38.480Z,3.37
2018-07-26T00:19:06.975Z,3.20
2018-07-26T00:21:35.500Z,3.50
2018-07-26T00:24:04.122Z,3.47
2018-07-26T00:26:32.579Z,3.73
2018-07-26T00:29:01.093Z,4.30
2018-07-26T00:31:29.554Z,3.73
2018-07-26T00:33:58.052Z,3.80
2018-07-26T00:36:26.558Z,3.83
2018-07-26T00:38:55.395Z,3.97
2018-07-26T00:41:23.909Z,4.10
2018-07-26T00:43:52.556Z,3.90
2018-07-26T00:46:20.985Z,3.83
2018-07-26T00:48:49.608Z,3.87
2018-07-26T00:51:18.204Z,3.90
2018-07-26T00:53:46.708Z,3.80
2018-07-26T00:56:15.164Z,3.50
2018-07-26T00:58:44.387Z,3.47
2018-07-26T01:01:12.851Z,3.63
2018-07-26T01:03:41.370Z,3.77
2018-07-26T01:06:09.831Z,3.60
2018-07-26T01:08:38.607Z,3.90
2018-07-26T01:11:07.113Z,3.13
2018-07-26T01:13:35.631Z,3.50
2018-07-26T01:16:04.615Z,3.40
2018-07-26T01:18:33.097Z,3.30
2018-07-26T01:21:01.603Z,2.90
2018-07-26T01:23:30.399Z,3.30
2018-07-26T01:25:58.923Z,3.63
2018-07-26T01:28:27.379Z,3.00
2018-07-26T01:30:55.874Z,4.27
2018-07-26T01:33:24.327Z,3.40
2018-07-26T01:35:52.839Z,3.10
2018-07-26T01:38:21.344Z,3.70
2018-07-26T01:40:49.859Z,3.50
2018-07-26T01:43:42.894Z,3.13
2018-07-26T01:46:11.835Z,3.47
2018-07-26T01:48:40.913Z,3.97
2018-07-26T01:51:09.783Z,3.70
2018-07-26T01:53:38.286Z,3.50
2018-07-26T01:56:08.432Z,3.50
2018-07-26T01:58:37.323Z,3.50
2018-07-26T02:01:06.690Z,3.43
2018-07-26T02:03:35.278Z,3.70
2018-07-26T02:06:04.019Z,3.23
2018-07-26T02:08:32.623Z,3.60
2018-07-26T02:11:01.444Z,3.50
2018-07-26T02:13:30.508Z,3.30
2018-07-26T02:15:59.047Z,3.67
2018-07-26T02:18:27.962Z,3.33
2018-07-26T02:20:56.466Z,3.67
2018-07-26T02:23:25.740Z,3.20
2018-07-26T02:25:54.635Z,3.73
2018-07-26T02:28:23.148Z,4.20
2018-07-26T02:30:52.038Z,3.53
2018-07-26T02:33:20.659Z,3.60
2018-07-26T02:35:49.148Z,3.83
2018-07-26T02:38:17.647Z,3.53
2018-07-26T02:40:46.089Z,3.97
2018-07-26T02:43:15.060Z,3.77
2018-07-26T02:45:43.535Z,3.40
2018-07-26T02:48:11.971Z,3.57
2018-07-26T02:50:40.450Z,3.23
2018-07-26T02:53:09.235Z,3.10
2018-07-26T02:55:37.710Z,3.60
2018-07-26T02:58:06.400Z,3.70
2018-07-26T03:00:34.835Z,3.40
2018-07-26T03:03:03.298Z,3.67
2018-07-26T03:05:31.840Z,3.30
2018-07-26T03:08:00.884Z,3.27
2018-07-26T03:10:29.335Z,3.37
2018-07-26T03:12:57.939Z,3.50
2018-07-26T03:15:26.455Z,3.60
2018-07-26T03:17:54.899Z,3.10
2018-07-26T03:20:23.375Z,2.60
2018-07-26T03:22:51.823Z,3.10
2018-07-26T03:25:20.325Z,3.37
2018-07-26T03:27:48.783Z,3.93
2018-07-26T03:30:17.662Z,3.57
2018-07-26T03:32:46.108Z,3.10
2018-07-26T03:35:14.751Z,3.30
2018-07-26T03:37:43.169Z,3.37
2018-07-26T03:40:11.616Z,3.90
2018-07-26T03:42:40.086Z,3.63
2018-07-26T03:45:08.539Z,3.80
2018-07-26T03:47:37.042Z,3.47
2018-07-26T03:50:05.847Z,3.60
2018-07-26T03:52:34.758Z,3.47
2018-07-26T03:55:03.298Z,3.57
2018-07-26T03:57:31.963Z,3.80
2018-07-26T04:00:00.440Z,3.33
2018-07-26T04:02:28.929Z,4.23
2018-07-26T04:04:57.373Z,4.30
2018-07-26T04:07:25.898Z,3.90
2018-07-26T04:09:54.384Z,4.07
2018-07-26T04:12:22.835Z,3.80
2018-07-26T04:14:51.389Z,3.80
2018-07-26T04:17:19.855Z,4.10
2018-07-26T04:19:48.347Z,3.93
2018-07-26T04:22:16.805Z,3.90
2018-07-26T04:24:47.207Z,3.83
2018-07-26T04:27:16.205Z,4.13
2018-07-26T04:29:49.177Z,4.40
2018-07-26T04:32:17.832Z,3.87
2018-07-26T04:34:46.307Z,4.57
2018-07-26T04:37:14.759Z,4.27
2018-07-26T04:39:44.108Z,4.10
2018-07-26T04:42:12.599Z,4.30
2018-07-26T04:44:41.179Z,4.33
2018-07-26T04:47:09.983Z,4.20
2018-07-26T04:49:38.463Z,4.00
2018-07-26T04:52:06.912Z,4.43
2018-07-26T04:54:35.448Z,4.47
2018-07-26T04:57:04.077Z,4.47
2018-07-26T04:59:32.589Z,5.20
2018-07-26T05:02:01.047Z,5.00
2018-07-26T05:04:29.538Z,4.83
2018-07-26T05:06:57.980Z,4.27
2018-07-26T05:09:26.478Z,5.27
2018-07-26T05:11:54.904Z,5.30
2018-07-26T05:14:23.538Z,5.40
2018-07-26T05:16:51.975Z,5.30
2018-07-26T05:19:20.241Z,5.50
2018-07-26T05:21:51.622Z,5.10
2018-07-26T05:24:20.370Z,5.20
2018-07-26T05:26:48.834Z,5.10
2018-07-26T05:29:17.331Z,5.03
2018-07-26T05:31:45.822Z,4.57
2018-07-26T05:34:14.407Z,4.17
2018-07-26T05:36:43.223Z,4.13
2018-07-26T05:39:12.268Z,4.27
2018-07-26T05:41:41.294Z,4.17
2018-07-26T05:44:09.787Z,4.23
2018-07-26T05:46:38.632Z,5.00
2018-07-26T05:49:07.080Z,4.40
2018-07-26T05:51:35.915Z,4.23
2018-07-26T05:54:04.407Z,4.17
2018-07-26T05:56:32.870Z,3.83
2018-07-26T05:59:01.330Z,3.67
2018-07-26T06:01:30.080Z,4.20
2018-07-26T06:03:59.048Z,3.60
2018-07-26T06:06:27.555Z,3.80
2018-07-26T06:08:55.987Z,4.27
2018-07-26T06:11:24.476Z,3.83
2018-07-26T06:13:52.602Z,3.90
2018-07-26T06:16:21.090Z,3.90
2018-07-26T06:18:49.542Z,3.70
2018-07-26T06:21:18.018Z,3.87
2018-07-26T06:23:46.801Z,3.60
2018-07-26T06:26:15.279Z,3.83
2018-07-26T06:28:43.730Z,3.60
2018-07-26T06:31:12.214Z,3.60
2018-07-26T06:33:40.712Z,3.93
2018-07-26T06:36:09.341Z,3.30
2018-07-26T06:38:37.840Z,3.40
2018-07-26T06:41:06.783Z,2.70
2018-07-26T06:43:35.231Z,2.93
2018-07-26T06:46:03.711Z,2.70
2018-07-26T06:48:32.228Z,2.90
2018-07-26T06:51:00.752Z,2.77
2018-07-26T06:53:29.649Z,3.03
2018-07-26T06:55:58.138Z,2.67
2018-07-26T06:58:27.054Z,2.80
2018-07-26T07:00:56.051Z,2.80
2018-07-26T07:03:24.680Z,3.07
2018-07-26T07:05:53.154Z,3.00
2018-07-26T07:08:21.643Z,3.10
2018-07-26T07:10:50.106Z,3.50
2018-07-26T07:13:18.949Z,2.73
2018-07-26T07:15:47.438Z,3.12
2018-07-26T07:18:16.588Z,2.72
2018-07-26T07:20:45.040Z,2.90
2018-07-26T07:23:14.013Z,2.92
2018-07-26T07:25:43.318Z,3.60
2018-07-26T07:28:12.643Z,3.47
2018-07-26T07:30:41.673Z,3.15
2018-07-26T07:33:10.723Z,3.37
2018-07-26T07:35:39.948Z,3.20
2018-07-26T07:38:08.959Z,2.98
2018-07-26T07:40:37.981Z,3.02
2018-07-26T07:43:07.029Z,3.10
2018-07-26T07:45:36.083Z,3.52
2018-07-26T07:48:05.207Z,3.25
2018-07-26T07:50:34.622Z,3.40
2018-07-26T07:53:03.631Z,3.22
2018-07-26T07:55:32.746Z,3.00
2018-07-26T07:58:01.771Z,2.72
2018-07-26T08:00:30.800Z,2.70
2018-07-26T08:02:59.803Z,3.15
2018-07-26T08:05:28.820Z,2.65
2018-07-26T08:07:57.797Z,2.92
2018-07-26T08:10:26.830Z,2.90
2018-07-26T08:12:56.321Z,3.25
2018-07-26T08:15:25.376Z,2.70
2018-07-26T08:17:54.364Z,3.17
2018-07-26T08:20:23.387Z,2.90
2018-07-26T08:22:52.389Z,2.70
2018-07-26T08:25:21.422Z,2.67
2018-07-26T08:27:50.425Z,3.22
2018-07-26T08:30:19.776Z,2.90
2018-07-26T08:32:49.084Z,2.92
2018-07-26T08:35:18.119Z,3.20
2018-07-26T08:37:47.108Z,2.95
2018-07-26T08:40:16.495Z,3.20
2018-07-26T08:42:45.528Z,3.10
2018-07-26T08:45:14.547Z,2.92
2018-07-26T08:47:45.226Z,2.83
2018-07-26T08:50:14.263Z,2.80
2018-07-26T08:52:43.263Z,3.00
2018-07-26T08:55:12.320Z,2.87
2018-07-26T08:57:41.330Z,2.50
2018-07-26T09:00:10.346Z,2.75
2018-07-26T09:02:39.360Z,3.15
2018-07-26T09:05:09.342Z,2.90
2018-07-26T09:07:38.375Z,2.20
2018-07-26T09:10:07.597Z,2.60
2018-07-26T09:12:36.624Z,2.58
2018-07-26T09:15:06.128Z,2.90
2018-07-26T09:17:35.952Z,2.75
2018-07-26T09:20:05.221Z,2.47
2018-07-26T09:22:34.432Z,3.25
2018-07-26T09:25:03.461Z,2.80
2018-07-26T09:27:32.465Z,2.60
2018-07-26T09:30:01.917Z,2.40
2018-07-26T09:32:31.237Z,2.80
2018-07-26T09:35:00.233Z,2.50
2018-07-26T09:37:29.199Z,2.27
2018-07-26T09:39:58.212Z,2.42
2018-07-26T09:42:27.242Z,2.52
2018-07-26T09:44:56.243Z,2.47
2018-07-26T09:47:25.027Z,3.30
2018-07-26T09:49:54.188Z,2.70
2018-07-26T09:52:23.192Z,2.30
2018-07-26T09:54:52.927Z,2.70
2018-07-26T09:57:22.080Z,2.40
2018-07-26T09:59:51.059Z,2.30
2018-07-26T10:02:20.060Z,2.60
2018-07-26T10:04:49.042Z,3.00
2018-07-26T10:07:18.143Z,2.65
2018-07-26T10:09:47.183Z,2.52
2018-07-26T10:12:16.171Z,2.33
2018-07-26T10:14:45.215Z,2.40
2018-07-26T10:17:14.235Z,2.60
2018-07-26T10:19:43.218Z,2.60
2018-07-26T10:22:12.279Z,2.70
2018-07-26T10:24:41.267Z,2.65
2018-07-26T10:27:10.275Z,2.90
2018-07-26T10:29:39.256Z,2.80
2018-07-26T10:32:08.278Z,2.92
2018-07-26T10:34:37.236Z,2.70
2018-07-26T10:37:06.779Z,2.90
2018-07-26T10:39:35.784Z,2.90
2018-07-26T10:42:04.808Z,2.47
2018-07-26T10:44:33.833Z,2.80
2018-07-26T10:47:03.043Z,2.90
2018-07-26T10:49:32.031Z,3.20
2018-07-26T10:52:01.051Z,2.40
2018-07-26T10:54:30.015Z,2.50
2018-07-26T10:56:59.045Z,2.47
2018-07-26T10:59:28.031Z,2.70
2018-07-26T11:01:57.124Z,2.75
2018-07-26T11:04:26.093Z,3.15
2018-07-26T11:06:54.815Z,2.50
2018-07-26T11:09:23.798Z,2.62
2018-07-26T11:11:53.176Z,2.70
2018-07-26T11:14:22.383Z,2.85
2018-07-26T11:16:51.378Z,3.00
2018-07-26T11:19:20.348Z,2.45
2018-07-26T11:21:49.723Z,2.70
2018-07-26T11:24:18.754Z,2.70
2018-07-26T11:26:47.924Z,2.80
2018-07-26T11:29:17.388Z,3.00
2018-07-26T11:31:46.417Z,2.85
2018-07-26T11:34:15.172Z,2.37
2018-07-26T11:36:44.223Z,2.40
2018-07-26T11:39:13.265Z,3.27
2018-07-26T11:41:42.707Z,2.80
2018-07-26T11:44:11.519Z,2.70
2018-07-26T11:46:40.523Z,2.80
2018-07-26T11:49:09.225Z,2.77
2018-07-26T11:51:38.255Z,2.47
2018-07-26T11:54:06.955Z,2.40
2018-07-26T11:56:35.684Z,2.57
2018-07-26T11:59:04.699Z,2.20
2018-07-26T12:01:33.793Z,2.42
2018-07-26T12:04:02.920Z,2.08
2018-07-26T12:06:31.667Z,2.40
2018-07-26T12:09:01.011Z,2.30
2018-07-26T12:11:30.039Z,2.42
2018-07-26T12:13:58.782Z,2.30
2018-07-26T12:16:27.796Z,2.83
2018-07-26T12:18:56.482Z,2.73
2018-07-26T12:21:25.623Z,2.33
2018-07-26T12:23:54.628Z,2.10
2018-07-26T12:26:23.386Z,2.30
2018-07-26T12:28:52.115Z,2.50
2018-07-26T12:31:20.843Z,2.63
2018-07-26T12:33:49.579Z,2.60
2018-07-26T12:36:18.327Z,2.30
2018-07-26T12:38:47.132Z,2.57
2018-07-26T12:41:16.028Z,2.30
2018-07-26T12:43:44.823Z,2.63
2018-07-26T12:46:13.667Z,2.33
2018-07-26T12:48:42.410Z,2.90
2018-07-26T12:51:11.100Z,3.03
2018-07-26T12:53:39.835Z,2.70
2018-07-26T12:56:08.516Z,2.67
2018-07-26T12:58:37.255Z,2.83
2018-07-26T13:01:06.175Z,2.63
2018-07-26T13:03:35.704Z,2.93
2018-07-26T13:06:04.452Z,2.77
2018-07-26T13:08:33.476Z,2.75
2018-07-26T13:11:02.447Z,2.58
2018-07-26T13:13:31.502Z,2.70
2018-07-26T13:16:00.479Z,3.00
2018-07-26T13:18:29.492Z,2.87
2018-07-26T13:20:58.516Z,2.72
2018-07-26T13:23:27.367Z,2.67
2018-07-26T13:25:56.479Z,2.70
2018-07-26T13:28:25.505Z,2.83
2018-07-26T13:30:54.224Z,2.60
2018-07-26T13:33:22.948Z,2.63
2018-07-26T13:35:52.719Z,3.00
2018-07-26T13:38:21.808Z,2.90
2018-07-26T13:40:50.503Z,2.87
2018-07-26T13:43:19.252Z,3.17
2018-07-26T13:45:47.930Z,3.10
2018-07-26T13:48:16.656Z,2.73
2018-07-26T13:50:45.347Z,2.67
2018-07-26T13:53:14.067Z,2.90
2018-07-26T13:55:42.758Z,3.00
2018-07-26T13:58:11.568Z,2.70
2018-07-26T14:00:40.969Z,2.98
2018-07-26T14:03:09.710Z,3.10
2018-07-26T14:05:38.410Z,2.97
2018-07-26T14:08:07.410Z,3.02
2018-07-26T14:10:36.144Z,3.10
2018-07-26T14:13:04.942Z,3.00
2018-07-26T14:15:33.684Z,3.37
2018-07-26T14:18:02.398Z,3.17
2018-07-26T14:20:31.159Z,3.07
2018-07-26T14:22:59.859Z,2.93
2018-07-26T14:25:28.586Z,2.83
2018-07-26T14:27:57.682Z,2.63
2018-07-26T14:30:26.430Z,2.63
2018-07-26T14:32:54.817Z,2.70
2018-07-26T14:35:23.906Z,2.87
2018-07-26T14:37:52.619Z,3.03
2018-07-26T14:40:21.391Z,2.83
2018-07-26T14:42:50.115Z,2.70
2018-07-26T14:45:19.205Z,3.00
2018-07-26T14:47:47.968Z,3.07
2018-07-26T14:50:16.767Z,3.07
2018-07-26T14:52:45.458Z,2.50
2018-07-26T14:55:14.200Z,2.80
2018-07-26T14:57:42.942Z,2.80
2018-07-26T15:00:11.807Z,3.03
2018-07-26T15:02:40.610Z,3.00
2018-07-26T15:05:09.402Z,2.87
2018-07-26T15:07:40.004Z,3.13
2018-07-26T15:10:09.584Z,2.70
2018-07-26T15:12:38.283Z,3.10
2018-07-26T15:15:08.596Z,3.30
2018-07-26T15:17:37.331Z,2.53
2018-07-26T15:20:06.767Z,3.00
2018-07-26T15:22:35.457Z,2.90
2018-07-26T15:25:04.879Z,3.00
2018-07-26T15:27:33.685Z,2.67
2018-07-26T15:30:02.516Z,3.07
2018-07-26T15:32:31.306Z,3.17
2018-07-26T15:35:00.166Z,3.03
2018-07-26T15:37:29.546Z,2.87
2018-07-26T15:39:58.688Z,3.45
2018-07-26T15:42:28.827Z,2.92
2018-07-26T15:44:57.857Z,2.90
2018-07-26T15:47:27.212Z,2.75
2018-07-26T15:49:56.288Z,3.55
2018-07-26T15:52:25.343Z,3.00
2018-07-26T15:54:54.082Z,3.00
2018-07-26T15:57:23.137Z,2.83
2018-07-26T15:59:52.659Z,3.08
2018-07-26T16:02:21.655Z,2.98
2018-07-26T16:04:50.706Z,3.00
2018-07-26T16:07:19.422Z,2.80
2018-07-26T16:09:48.443Z,3.17
2018-07-26T16:12:17.439Z,3.02
2018-07-26T16:14:46.663Z,3.58
2018-07-26T16:17:15.689Z,3.30
2018-07-26T16:19:44.707Z,2.70
2018-07-26T16:22:13.717Z,2.87
2018-07-26T16:24:43.071Z,2.95
2018-07-26T16:27:12.105Z,3.02
2018-07-26T16:29:41.148Z,3.08
2018-07-26T16:32:10.389Z,3.50
2018-07-26T16:34:41.780Z,3.15
2018-07-26T16:37:10.755Z,3.30
2018-07-26T16:39:39.774Z,2.83
2018-07-26T16:42:08.758Z,3.25
2018-07-26T16:44:37.791Z,3.10
2018-07-26T16:47:06.810Z,2.95
2018-07-26T16:49:35.863Z,2.85
2018-07-26T16:52:04.901Z,3.10
2018-07-26T16:54:33.937Z,3.20
2018-07-26T16:57:03.336Z,3.05
2018-07-26T16:59:32.288Z,3.10
2018-07-26T17:02:01.314Z,2.75
2018-07-26T17:04:30.381Z,3.10
2018-07-26T17:06:59.380Z,3.33
2018-07-26T17:09:28.427Z,3.30
2018-07-26T17:11:57.439Z,3.30
2018-07-26T17:14:26.504Z,3.33
2018-07-26T17:16:55.527Z,3.20
2018-07-26T17:19:24.559Z,3.40
2018-07-26T17:21:53.565Z,3.15
2018-07-26T17:24:22.563Z,2.98
2018-07-26T17:26:51.598Z,2.95
2018-07-26T17:29:20.657Z,3.25
2018-07-26T17:31:49.838Z,3.40
2018-07-26T17:34:18.517Z,3.12
2018-07-26T17:36:47.605Z,3.17
2018-07-26T17:39:16.636Z,3.40
2018-07-26T17:41:45.667Z,3.10
2018-07-26T17:44:15.036Z,3.17
2018-07-26T17:46:44.392Z,3.20
2018-07-26T17:49:13.087Z,2.80
2018-07-26T17:51:41.814Z,3.33
2018-07-26T17:54:10.796Z,3.45
2018-07-26T17:56:39.904Z,3.65
2018-07-26T17:59:09.068Z,3.08
2018-07-26T18:01:38.102Z,3.20
2018-07-26T18:04:14.184Z,3.30
2018-07-26T18:06:47.674Z,3.52
2018-07-26T18:09:31.649Z,3.25
2018-07-26T18:12:02.360Z,4.60
2018-07-26T18:14:33.582Z,3.12
2018-07-26T18:17:02.622Z,3.60
2018-07-26T18:19:31.783Z,3.12
2018-07-26T18:22:01.325Z,3.62
2018-07-26T18:24:30.427Z,3.67
2018-07-26T18:26:59.454Z,3.27
2018-07-26T18:29:28.459Z,3.55
2018-07-26T18:31:57.708Z,3.67
2018-07-26T18:34:27.042Z,3.60
2018-07-26T18:36:56.621Z,4.05
2018-07-26T18:39:25.990Z,3.33
2018-07-26T18:41:55.301Z,4.28
2018-07-26T18:44:24.352Z,3.52
2018-07-26T18:46:53.340Z,3.67
2018-07-26T18:49:22.401Z,3.50
2018-07-26T18:51:51.567Z,4.00
2018-07-26T18:54:20.603Z,3.50
2018-07-26T18:56:49.950Z,3.80
2018-07-26T18:59:18.972Z,3.92
2018-07-26T19:01:47.967Z,3.60
2018-07-26T19:04:17.334Z,3.92
2018-07-26T19:06:46.683Z,3.83
2018-07-26T19:09:15.695Z,3.58
2018-07-26T19:11:44.699Z,3.50
2018-07-26T19:14:14.203Z,3.80
2018-07-26T19:16:43.255Z,3.98
2018-07-26T19:19:12.352Z,4.05
2018-07-26T19:21:41.691Z,4.05
2018-07-26T19:24:10.748Z,4.00
2018-07-26T19:26:39.736Z,3.65
2018-07-26T19:29:08.778Z,4.03
2018-07-26T19:31:37.828Z,4.08
2018-07-26T19:34:06.880Z,3.77
2018-07-26T19:36:35.901Z,3.87
2018-07-26T19:39:08.382Z,4.00
2018-07-26T19:41:37.402Z,4.40
2018-07-26T19:44:06.452Z,4.67
2018-07-26T19:46:35.615Z,3.98
2018-07-26T19:49:04.660Z,4.35
2018-07-26T19:51:33.661Z,4.10
2018-07-26T19:54:03.153Z,4.62
2018-07-26T19:56:32.329Z,4.50
2018-07-26T19:59:01.086Z,4.55
2018-07-26T20:01:30.506Z,4.25
2018-07-26T20:03:59.593Z,4.20
2018-07-26T20:06:28.707Z,4.37
2018-07-26T20:08:57.737Z,4.35
2018-07-26T20:11:26.718Z,4.08
2018-07-26T20:13:55.765Z,4.15
2018-07-26T20:16:24.796Z,4.60
2018-07-26T20:18:53.811Z,4.08
2018-07-26T20:21:22.774Z,4.40
2018-07-26T20:23:51.808Z,4.25
2018-07-26T20:26:20.803Z,4.30
2018-07-26T20:28:49.842Z,4.35
2018-07-26T20:31:18.856Z,4.58
2018-07-26T20:33:47.882Z,4.00
2018-07-26T20:36:17.184Z,4.08
2018-07-26T20:38:46.318Z,4.22
2018-07-26T20:41:15.478Z,4.03
2018-07-26T20:43:44.566Z,4.53
2018-07-26T20:46:13.614Z,4.30
2018-07-26T20:48:42.926Z,4.30
2018-07-26T20:51:12.084Z,4.70
2018-07-26T20:53:41.484Z,3.92
2018-07-26T20:56:10.467Z,4.12
2018-07-26T20:58:39.524Z,4.60
2018-07-26T21:01:08.541Z,4.45
2018-07-26T21:03:37.571Z,4.40
2018-07-26T21:06:06.574Z,5.05
2018-07-26T21:08:35.591Z,4.00
2018-07-26T21:11:05.499Z,3.98
2018-07-26T21:13:34.527Z,4.60
2018-07-26T21:16:03.582Z,4.10
2018-07-26T21:18:32.613Z,4.47
2018-07-26T21:21:01.600Z,4.30
2018-07-26T21:23:30.735Z,4.30
2018-07-26T21:25:59.772Z,4.15
2018-07-26T21:28:29.124Z,4.33
2018-07-26T21:30:58.168Z,4.35
2018-07-26T21:33:27.165Z,4.37
2018-07-26T21:35:56.188Z,4.20
2018-07-26T21:38:25.163Z,4.22
2018-07-26T21:40:54.249Z,4.90
2018-07-26T21:43:23.280Z,4.30
2018-07-26T21:45:52.392Z,4.25
2018-07-26T21:48:21.415Z,4.62
2018-07-26T21:50:50.444Z,4.50
2018-07-26T21:53:19.867Z,4.53
2018-07-26T21:55:48.895Z,4.50
2018-07-26T21:58:17.922Z,4.37
2018-07-26T22:00:52.338Z,4.53
2018-07-26T22:03:20.774Z,4.60
2018-07-26T22:05:49.804Z,4.00
2018-07-26T22:08:18.262Z,4.03
2018-07-26T22:10:48.118Z,4.55
2018-07-26T22:13:17.133Z,4.78
2018-07-26T22:15:46.003Z,4.23
2018-07-26T22:18:14.996Z,4.17
2018-07-26T22:20:43.505Z,4.33
2018-07-26T22:23:11.995Z,4.47
2018-07-26T22:25:45.424Z,4.47
2018-07-26T22:28:13.872Z,4.47
2018-07-26T22:30:42.396Z,4.90
2018-07-26T22:33:11.074Z,4.20
2018-07-26T22:35:39.887Z,4.47
2018-07-26T22:38:08.390Z,4.43
2018-07-26T22:40:36.880Z,4.37
2018-07-26T22:43:05.490Z,4.97
2018-07-26T22:45:33.968Z,5.43
2018-07-26T22:48:02.411Z,4.63
2018-07-26T22:50:31.177Z,4.97
2018-07-26T22:52:59.682Z,5.20
2018-07-26T22:55:28.360Z,4.40
2018-07-26T22:57:57.143Z,5.03
2018-07-26T23:00:25.631Z,5.00
2018-07-26T23:02:54.150Z,4.63
2018-07-26T23:05:22.659Z,4.80
2018-07-26T23:07:51.264Z,4.47
2018-07-26T23:10:19.838Z,4.47
2018-07-26T23:12:48.346Z,4.70
2018-07-26T23:15:16.888Z,4.77
2018-07-26T23:17:45.527Z,5.10
2018-07-26T23:20:13.973Z,4.47
2018-07-26T23:22:42.472Z,5.10
2018-07-26T23:25:10.907Z,5.40
2018-07-26T23:27:39.342Z,4.83
2018-07-26T23:30:12.935Z,5.03
2018-07-26T23:32:41.404Z,5.10
2018-07-26T23:35:10.170Z,5.03
2018-07-26T23:37:38.631Z,5.10
2018-07-26T23:40:08.669Z,5.13
2018-07-26T23:42:37.315Z,5.43
2018-07-26T23:45:06.048Z,5.20
2018-07-26T23:47:34.531Z,5.03
2018-07-26T23:50:03.748Z,5.37
2018-07-26T23:52:32.225Z,5.27
2018-07-26T23:55:00.760Z,5.03
2018-07-26T23:57:29.214Z,5.50
2018-07-26T23:59:57.718Z,5.37
